SEJ135 OEJN-OMDB
Flight info
| Callsign | SEJ135 |
|---|---|
| Flight time | N/A |
| Altitude | 35000 |
| Route | EGREP T532 KODIS Y214 RAPMA DCT KUVSO DCT RIBOT M550 GOLGU M318 RURAL Q317 LORID |
| Aircraft | B738/M-SDE2E3FGHIRWXY/LB1 |
Departure
| Time | 2026-05-06 11:47 |
|---|---|
| Airport | King Abdulaziz International Airport (OEJN) |
Arrival
| Time | N/A |
|---|---|
| Airport | Dubai International Airport (OMDB) |
| Time | Latitude | Longitude | Altitude | Speed | Heading |
|---|---|---|---|---|---|
| 2026-05-06 11:05 | 21.69977 | 39.14359 | 28 ft | 0 kts | 253° |
| 2026-05-06 11:32 | 21.69980 | 39.14370 | 28 ft | 2 kts | 253° |
| 2026-05-06 11:32 | 21.69985 | 39.14387 | 28 ft | 2 kts | 243° |
| 2026-05-06 11:32 | 21.69995 | 39.14401 | 28 ft | 2 kts | 216° |
| 2026-05-06 11:32 | 21.70009 | 39.14409 | 28 ft | 2 kts | 194° |
| 2026-05-06 11:33 | 21.70025 | 39.14411 | 28 ft | 2 kts | 176° |
| 2026-05-06 11:33 | 21.70042 | 39.14414 | 28 ft | 2 kts | 207° |
| 2026-05-06 11:33 | 21.70055 | 39.14416 | 28 ft | 0 kts | 165° |
| 2026-05-06 11:36 | 21.70039 | 39.14423 | 28 ft | 4 kts | 155° |
| 2026-05-06 11:37 | 21.69998 | 39.14446 | 28 ft | 10 kts | 155° |
| 2026-05-06 11:37 | 21.69915 | 39.14475 | 28 ft | 15 kts | 162° |
| 2026-05-06 11:37 | 21.69803 | 39.14530 | 28 ft | 20 kts | 140° |
| 2026-05-06 11:37 | 21.69664 | 39.14603 | 28 ft | 25 kts | 160° |
| 2026-05-06 11:38 | 21.69497 | 39.14670 | 28 ft | 25 kts | 160° |
| 2026-05-06 11:38 | 21.69339 | 39.14733 | 28 ft | 23 kts | 160° |
| 2026-05-06 11:38 | 21.69189 | 39.14791 | 28 ft | 23 kts | 160° |
| 2026-05-06 11:38 | 21.69044 | 39.14849 | 29 ft | 22 kts | 159° |
| 2026-05-06 11:39 | 21.68907 | 39.14913 | 29 ft | 21 kts | 158° |
| 2026-05-06 11:39 | 21.68768 | 39.14957 | 29 ft | 20 kts | 163° |
| 2026-05-06 11:39 | 21.68672 | 39.15020 | 30 ft | 14 kts | 105° |
| 2026-05-06 11:39 | 21.68688 | 39.15124 | 30 ft | 14 kts | 88° |
| 2026-05-06 11:40 | 21.68628 | 39.15191 | 30 ft | 8 kts | 159° |
| 2026-05-06 11:40 | 21.68624 | 39.15195 | 30 ft | 3 kts | 134° |
| 2026-05-06 11:40 | 21.68621 | 39.15249 | 30 ft | 11 kts | 98° |
| 2026-05-06 11:40 | 21.68573 | 39.15306 | 29 ft | 11 kts | 156° |
| 2026-05-06 11:41 | 21.68505 | 39.15333 | 30 ft | 11 kts | 160° |
| 2026-05-06 11:41 | 21.68434 | 39.15361 | 29 ft | 11 kts | 160° |
| 2026-05-06 11:41 | 21.68355 | 39.15393 | 29 ft | 13 kts | 160° |
| 2026-05-06 11:41 | 21.68260 | 39.15430 | 31 ft | 16 kts | 159° |
| 2026-05-06 11:42 | 21.68150 | 39.15474 | 29 ft | 18 kts | 161° |
| 2026-05-06 11:42 | 21.68025 | 39.15521 | 31 ft | 20 kts | 158° |
| 2026-05-06 11:42 | 21.67891 | 39.15576 | 32 ft | 22 kts | 160° |
| 2026-05-06 11:42 | 21.67744 | 39.15634 | 32 ft | 23 kts | 160° |
| 2026-05-06 11:43 | 21.67586 | 39.15697 | 33 ft | 25 kts | 160° |
| 2026-05-06 11:43 | 21.67416 | 39.15762 | 33 ft | 26 kts | 160° |
| 2026-05-06 11:43 | 21.67249 | 39.15829 | 33 ft | 26 kts | 160° |
| 2026-05-06 11:44 | 21.66924 | 39.15956 | 34 ft | 22 kts | 158° |
| 2026-05-06 11:44 | 21.66834 | 39.15992 | 34 ft | 12 kts | 159° |
| 2026-05-06 11:44 | 21.66744 | 39.16028 | 34 ft | 15 kts | 160° |
| 2026-05-06 11:44 | 21.66639 | 39.16069 | 35 ft | 17 kts | 160° |
| 2026-05-06 11:45 | 21.66521 | 39.16116 | 35 ft | 19 kts | 159° |
| 2026-05-06 11:45 | 21.66389 | 39.16168 | 35 ft | 20 kts | 159° |
| 2026-05-06 11:45 | 21.66264 | 39.16215 | 35 ft | 14 kts | 162° |
| 2026-05-06 11:45 | 21.66202 | 39.16245 | 34 ft | 8 kts | 139° |
| 2026-05-06 11:46 | 21.66194 | 39.16307 | 35 ft | 10 kts | 75° |
| 2026-05-06 11:46 | 21.66220 | 39.16393 | 33 ft | 14 kts | 60° |
| 2026-05-06 11:46 | 21.66308 | 39.16420 | 34 ft | 15 kts | 350° |
| 2026-05-06 11:46 | 21.66454 | 39.16364 | 35 ft | 46 kts | 338° |
| 2026-05-06 11:47 | 21.67010 | 39.16137 | 34 ft | 122 kts | 340° |
| 2026-05-06 11:47 | 21.68004 | 39.15753 | 126 ft | 176 kts | 340° |
| 2026-05-06 11:47 | 21.69115 | 39.15346 | 1265 ft | 160 kts | 339° |
| 2026-05-06 11:47 | 21.70224 | 39.14935 | 2016 ft | 176 kts | 338° |
| 2026-05-06 11:48 | 21.71475 | 39.14426 | 2259 ft | 206 kts | 338° |
| 2026-05-06 11:48 | 21.72869 | 39.13862 | 2458 ft | 228 kts | 341° |
| 2026-05-06 11:48 | 21.74475 | 39.13823 | 2855 ft | 241 kts | 19° |
| 2026-05-06 11:48 | 21.75884 | 39.14832 | 3456 ft | 248 kts | 40° |
| 2026-05-06 11:49 | 21.77171 | 39.16080 | 4173 ft | 250 kts | 42° |
| 2026-05-06 11:49 | 21.78453 | 39.17345 | 4953 ft | 252 kts | 43° |
| 2026-05-06 11:49 | 21.79754 | 39.18628 | 5651 ft | 256 kts | 43° |
| 2026-05-06 11:49 | 21.81075 | 39.19926 | 6367 ft | 258 kts | 43° |
| 2026-05-06 11:50 | 21.82413 | 39.21235 | 7043 ft | 262 kts | 43° |
| 2026-05-06 11:50 | 21.83774 | 39.22562 | 7677 ft | 266 kts | 43° |
| 2026-05-06 11:50 | 21.85194 | 39.23944 | 8003 ft | 285 kts | 43° |
| 2026-05-06 11:50 | 21.86688 | 39.25396 | 8501 ft | 294 kts | 43° |
| 2026-05-06 11:51 | 21.88215 | 39.26877 | 9146 ft | 297 kts | 43° |
| 2026-05-06 11:51 | 21.89767 | 39.28379 | 9807 ft | 300 kts | 43° |
| 2026-05-06 11:51 | 21.91334 | 39.29895 | 10324 ft | 309 kts | 43° |
| 2026-05-06 11:51 | 21.92992 | 39.31502 | 10460 ft | 331 kts | 43° |
| 2026-05-06 11:52 | 21.94753 | 39.33210 | 10621 ft | 350 kts | 43° |
| 2026-05-06 11:52 | 21.96611 | 39.35011 | 10761 ft | 369 kts | 43° |
| 2026-05-06 11:52 | 21.98560 | 39.36899 | 11007 ft | 382 kts | 43° |
| 2026-05-06 11:52 | 22.00554 | 39.38829 | 11469 ft | 388 kts | 43° |
| 2026-05-06 11:53 | 22.02580 | 39.40790 | 11973 ft | 393 kts | 43° |
| 2026-05-06 11:53 | 22.04629 | 39.42775 | 12489 ft | 398 kts | 43° |
| 2026-05-06 11:53 | 22.06700 | 39.44781 | 13007 ft | 402 kts | 43° |
| 2026-05-06 11:53 | 22.08790 | 39.46808 | 13539 ft | 406 kts | 43° |
| 2026-05-06 11:54 | 22.10899 | 39.48854 | 14044 ft | 410 kts | 43° |
| 2026-05-06 11:54 | 22.13003 | 39.50895 | 14556 ft | 414 kts | 43° |
| 2026-05-06 11:54 | 22.15147 | 39.52977 | 15056 ft | 418 kts | 43° |
| 2026-05-06 11:54 | 22.17318 | 39.55085 | 15538 ft | 421 kts | 43° |
| 2026-05-06 11:55 | 22.19506 | 39.57211 | 16076 ft | 424 kts | 43° |
| 2026-05-06 11:55 | 22.21707 | 39.59350 | 16559 ft | 428 kts | 43° |
| 2026-05-06 11:55 | 22.23928 | 39.61509 | 17052 ft | 432 kts | 43° |
| 2026-05-06 11:55 | 22.26170 | 39.63690 | 17523 ft | 435 kts | 43° |
| 2026-05-06 11:56 | 22.28430 | 39.65889 | 17991 ft | 439 kts | 43° |
| 2026-05-06 11:56 | 22.30705 | 39.68105 | 18379 ft | 443 kts | 43° |
| 2026-05-06 11:56 | 22.33006 | 39.70346 | 18750 ft | 447 kts | 43° |
| 2026-05-06 11:56 | 22.35325 | 39.72605 | 19228 ft | 450 kts | 42° |
| 2026-05-06 11:57 | 22.37653 | 39.74875 | 19698 ft | 451 kts | 42° |
| 2026-05-06 11:57 | 22.39989 | 39.77152 | 20159 ft | 454 kts | 42° |
| 2026-05-06 11:57 | 22.42345 | 39.79449 | 20563 ft | 457 kts | 42° |
| 2026-05-06 11:57 | 22.44708 | 39.81755 | 20955 ft | 460 kts | 42° |
| 2026-05-06 11:58 | 22.47097 | 39.84088 | 21322 ft | 463 kts | 42° |
| 2026-05-06 11:58 | 22.49506 | 39.86409 | 21673 ft | 465 kts | 41° |
| 2026-05-06 11:58 | 22.51942 | 39.88734 | 22003 ft | 468 kts | 41° |
| 2026-05-06 11:58 | 22.54402 | 39.91075 | 22253 ft | 473 kts | 41° |
| 2026-05-06 11:59 | 22.56875 | 39.93427 | 22593 ft | 475 kts | 41° |
| 2026-05-06 11:59 | 22.59360 | 39.95794 | 22956 ft | 476 kts | 41° |
| 2026-05-06 11:59 | 22.61851 | 39.98170 | 23262 ft | 479 kts | 41° |
| 2026-05-06 11:59 | 22.64356 | 40.00561 | 23565 ft | 481 kts | 40° |
| 2026-05-06 12:00 | 22.66870 | 40.02965 | 23888 ft | 482 kts | 40° |
| 2026-05-06 12:00 | 22.69319 | 40.05309 | 24735 ft | 469 kts | 40° |
| 2026-05-06 12:00 | 22.71737 | 40.07624 | 25592 ft | 458 kts | 40° |
| 2026-05-06 12:00 | 22.74119 | 40.09906 | 26457 ft | 447 kts | 40° |
| 2026-05-06 12:01 | 22.76443 | 40.12133 | 26943 ft | 447 kts | 40° |
| 2026-05-06 12:01 | 22.78755 | 40.14348 | 27298 ft | 448 kts | 40° |
| 2026-05-06 12:01 | 22.81056 | 40.16555 | 28181 ft | 434 kts | 40° |
| 2026-05-06 12:01 | 22.83285 | 40.18694 | 29026 ft | 421 kts | 40° |
| 2026-05-06 12:02 | 22.85463 | 40.20785 | 29566 ft | 418 kts | 40° |
| 2026-05-06 12:02 | 22.87665 | 40.22896 | 29650 ft | 428 kts | 40° |
| 2026-05-06 12:02 | 22.89926 | 40.25067 | 29759 ft | 437 kts | 40° |
| 2026-05-06 12:02 | 22.92222 | 40.27271 | 29832 ft | 445 kts | 40° |
| 2026-05-06 12:03 | 22.96941 | 40.31807 | 30034 ft | 461 kts | 40° |
| 2026-05-06 12:03 | 23.01829 | 40.36515 | 30152 ft | 477 kts | 40° |
| 2026-05-06 12:04 | 23.06870 | 40.41376 | 30279 ft | 492 kts | 40° |
| 2026-05-06 12:04 | 23.08559 | 40.43006 | 30555 ft | 488 kts | 40° |
| 2026-05-06 12:04 | 23.11026 | 40.45391 | 31794 ft | 461 kts | 40° |
| 2026-05-06 12:05 | 23.13357 | 40.47646 | 32938 ft | 437 kts | 39° |
| 2026-05-06 12:05 | 23.15571 | 40.49784 | 33764 ft | 423 kts | 38° |
| 2026-05-06 12:05 | 23.17822 | 40.51925 | 33423 ft | 441 kts | 39° |
| 2026-05-06 12:05 | 23.20232 | 40.54191 | 32536 ft | 474 kts | 40° |
| 2026-05-06 12:06 | 23.22716 | 40.56639 | 32331 ft | 487 kts | 40° |
| 2026-05-06 12:06 | 23.25184 | 40.59198 | 32425 ft | 494 kts | 46° |
| 2026-05-06 12:06 | 23.29174 | 40.65402 | 32504 ft | 508 kts | 65° |
| 2026-05-06 12:07 | 23.31777 | 40.72609 | 32602 ft | 518 kts | 72° |
| 2026-05-06 12:07 | 23.34249 | 40.80056 | 32694 ft | 528 kts | 72° |
| 2026-05-06 12:08 | 23.36814 | 40.87604 | 32924 ft | 535 kts | 71° |
| 2026-05-06 12:08 | 23.38123 | 40.91391 | 33193 ft | 534 kts | 71° |
| 2026-05-06 12:08 | 23.39432 | 40.95162 | 33487 ft | 532 kts | 71° |
| 2026-05-06 12:09 | 23.40741 | 40.98932 | 33738 ft | 532 kts | 71° |
| 2026-05-06 12:09 | 23.42047 | 41.02701 | 33916 ft | 533 kts | 71° |
| 2026-05-06 12:09 | 23.43356 | 41.06487 | 34058 ft | 535 kts | 71° |
| 2026-05-06 12:09 | 23.44665 | 41.10277 | 34255 ft | 535 kts | 71° |
| 2026-05-06 12:10 | 23.45958 | 41.14020 | 34475 ft | 535 kts | 71° |
| 2026-05-06 12:10 | 23.47266 | 41.17812 | 34704 ft | 534 kts | 71° |
| 2026-05-06 12:10 | 23.48569 | 41.21600 | 34975 ft | 534 kts | 71° |
| 2026-05-06 12:10 | 23.49870 | 41.25388 | 35211 ft | 534 kts | 71° |
| 2026-05-06 12:11 | 23.51171 | 41.29176 | 35452 ft | 534 kts | 71° |
| 2026-05-06 12:11 | 23.52472 | 41.32967 | 35730 ft | 533 kts | 71° |
| 2026-05-06 12:11 | 23.53766 | 41.36737 | 35994 ft | 531 kts | 71° |
| 2026-05-06 12:11 | 23.55057 | 41.40506 | 36202 ft | 530 kts | 71° |
| 2026-05-06 12:12 | 23.56346 | 41.44270 | 36340 ft | 531 kts | 71° |
| 2026-05-06 12:12 | 23.57636 | 41.48044 | 36455 ft | 532 kts | 71° |
| 2026-05-06 12:12 | 23.58926 | 41.51821 | 36608 ft | 532 kts | 71° |
| 2026-05-06 12:12 | 23.60215 | 41.55594 | 36915 ft | 528 kts | 71° |
| 2026-05-06 12:13 | 23.61492 | 41.59335 | 37019 ft | 528 kts | 72° |
| 2026-05-06 12:13 | 23.62774 | 41.63096 | 37004 ft | 527 kts | 72° |
| 2026-05-06 12:13 | 23.65313 | 41.70550 | 36987 ft | 521 kts | 72° |
| 2026-05-06 12:14 | 23.67808 | 41.77937 | 36987 ft | 518 kts | 73° |
| 2026-05-06 12:14 | 23.70132 | 41.85308 | 36993 ft | 517 kts | 74° |
| 2026-05-06 12:15 | 23.72474 | 41.92815 | 37001 ft | 522 kts | 73° |
| 2026-05-06 12:15 | 23.74838 | 42.00287 | 36989 ft | 525 kts | 73° |
| 2026-05-06 12:16 | 23.77362 | 42.07770 | 36985 ft | 523 kts | 71° |
| 2026-05-06 12:16 | 23.79933 | 42.15191 | 36983 ft | 521 kts | 71° |
| 2026-05-06 12:17 | 23.82473 | 42.22585 | 36990 ft | 521 kts | 72° |
| 2026-05-06 12:17 | 23.84999 | 42.30006 | 36993 ft | 520 kts | 72° |
| 2026-05-06 12:18 | 23.87511 | 42.37414 | 36992 ft | 520 kts | 72° |
| 2026-05-06 12:18 | 23.90026 | 42.44843 | 36993 ft | 520 kts | 72° |
| 2026-05-06 12:19 | 23.92533 | 42.52259 | 36990 ft | 521 kts | 72° |
| 2026-05-06 12:19 | 23.95040 | 42.59683 | 36992 ft | 521 kts | 72° |
| 2026-05-06 12:20 | 23.97546 | 42.67114 | 36992 ft | 520 kts | 72° |
| 2026-05-06 12:20 | 24.00041 | 42.74527 | 36979 ft | 520 kts | 72° |
| 2026-05-06 12:21 | 24.02523 | 42.81915 | 36975 ft | 520 kts | 73° |
| 2026-05-06 12:21 | 24.03478 | 42.85707 | 36965 ft | 515 kts | 85° |
| 2026-05-06 12:21 | 24.03777 | 42.89579 | 36995 ft | 508 kts | 96° |
| 2026-05-06 12:22 | 24.02712 | 42.97065 | 36990 ft | 492 kts | 114° |
| 2026-05-06 12:22 | 24.00680 | 43.04223 | 36987 ft | 493 kts | 114° |
| 2026-05-06 12:23 | 23.98650 | 43.11395 | 36996 ft | 495 kts | 113° |
| 2026-05-06 12:23 | 23.96666 | 43.18616 | 36994 ft | 497 kts | 112° |
| 2026-05-06 12:24 | 23.94697 | 43.25867 | 36988 ft | 497 kts | 112° |
| 2026-05-06 12:24 | 23.92728 | 43.33112 | 36996 ft | 497 kts | 112° |
| 2026-05-06 12:25 | 23.90751 | 43.40355 | 36987 ft | 497 kts | 112° |
| 2026-05-06 12:25 | 23.88788 | 43.47530 | 36986 ft | 496 kts | 112° |
| 2026-05-06 12:26 | 23.86813 | 43.54734 | 36986 ft | 494 kts | 112° |
| 2026-05-06 12:26 | 23.84843 | 43.61909 | 36988 ft | 492 kts | 112° |
| 2026-05-06 12:27 | 23.82871 | 43.69067 | 36992 ft | 491 kts | 112° |
| 2026-05-06 12:27 | 23.80903 | 43.76207 | 36991 ft | 490 kts | 112° |